sensor_id;sensor_type;location;lat;lon;timestamp;temperature;humidity
24382;DHT22;12502;50.678;7.172;2023-07-13T00:00:59;18.30;99.90
24382;DHT22;12502;50.678;7.172;2023-07-13T00:06:01;18.00;99.90
24382;DHT22;12502;50.678;7.172;2023-07-13T00:11:04;17.90;99.90
24382;DHT22;12502;50.678;7.172;2023-07-13T00:16:06;17.70;99.90
24382;DHT22;12502;50.678;7.172;2023-07-13T00:21:08;17.60;99.90
24382;DHT22;12502;50.678;7.172;2023-07-13T00:26:10;17.40;99.90
24382;DHT22;12502;50.678;7.172;2023-07-13T00:31:13;17.00;99.90
24382;DHT22;12502;50.678;7.172;2023-07-13T00:36:16;16.80;99.90
24382;DHT22;12502;50.678;7.172;2023-07-13T00:41:18;16.70;99.90
24382;DHT22;12502;50.678;7.172;2023-07-13T00:46:28;16.50;99.90
24382;DHT22;12502;50.678;7.172;2023-07-13T00:51:31;16.40;99.90
24382;DHT22;12502;50.678;7.172;2023-07-13T00:56:34;16.30;99.90
24382;DHT22;12502;50.678;7.172;2023-07-13T01:01:36;16.20;99.90
24382;DHT22;12502;50.678;7.172;2023-07-13T01:06:39;16.10;99.90
24382;DHT22;12502;50.678;7.172;2023-07-13T01:11:41;16.10;99.90
24382;DHT22;12502;50.678;7.172;2023-07-13T01:16:44;16.20;99.90
24382;DHT22;12502;50.678;7.172;2023-07-13T01:21:52;16.30;99.90
24382;DHT22;12502;50.678;7.172;2023-07-13T01:26:54;16.20;99.90
24382;DHT22;12502;50.678;7.172;2023-07-13T01:31:56;16.20;99.90
24382;DHT22;12502;50.678;7.172;2023-07-13T01:36:58;16.00;99.90
24382;DHT22;12502;50.678;7.172;2023-07-13T01:41:59;16.10;99.90
24382;DHT22;12502;50.678;7.172;2023-07-13T01:47:01;16.10;99.90
24382;DHT22;12502;50.678;7.172;2023-07-13T01:52:03;16.10;99.90
24382;DHT22;12502;50.678;7.172;2023-07-13T01:57:05;16.00;99.90
24382;DHT22;12502;50.678;7.172;2023-07-13T02:02:07;16.00;99.90
24382;DHT22;12502;50.678;7.172;2023-07-13T02:07:09;15.90;99.90
24382;DHT22;12502;50.678;7.172;2023-07-13T02:12:10;15.80;99.90
24382;DHT22;12502;50.678;7.172;2023-07-13T02:17:13;15.70;99.90
24382;DHT22;12502;50.678;7.172;2023-07-13T02:22:15;15.70;99.90
24382;DHT22;12502;50.678;7.172;2023-07-13T02:27:16;15.70;99.90
24382;DHT22;12502;50.678;7.172;2023-07-13T02:32:18;15.50;99.90
24382;DHT22;12502;50.678;7.172;2023-07-13T02:37:20;15.50;99.90
24382;DHT22;12502;50.678;7.172;2023-07-13T02:42:22;15.50;99.90
24382;DHT22;12502;50.678;7.172;2023-07-13T02:47:24;15.50;99.90
24382;DHT22;12502;50.678;7.172;2023-07-13T02:52:26;15.50;99.90
24382;DHT22;12502;50.678;7.172;2023-07-13T02:57:28;15.70;99.90
24382;DHT22;12502;50.678;7.172;2023-07-13T03:02:30;15.60;99.90
24382;DHT22;12502;50.678;7.172;2023-07-13T03:07:31;15.50;99.90
24382;DHT22;12502;50.678;7.172;2023-07-13T03:12:33;15.60;99.90
24382;DHT22;12502;50.678;7.172;2023-07-13T03:17:35;15.60;99.90
24382;DHT22;12502;50.678;7.172;2023-07-13T03:22:37;15.50;99.90
24382;DHT22;12502;50.678;7.172;2023-07-13T03:27:38;15.70;99.90
24382;DHT22;12502;50.678;7.172;2023-07-13T03:32:40;15.70;99.90
24382;DHT22;12502;50.678;7.172;2023-07-13T03:37:42;15.70;99.90
24382;DHT22;12502;50.678;7.172;2023-07-13T03:42:44;15.80;99.90
24382;DHT22;12502;50.678;7.172;2023-07-13T03:47:46;15.70;99.90
24382;DHT22;12502;50.678;7.172;2023-07-13T03:52:47;15.80;99.90
24382;DHT22;12502;50.678;7.172;2023-07-13T03:57:58;15.90;99.90
24382;DHT22;12502;50.678;7.172;2023-07-13T04:03:00;16.00;99.90
24382;DHT22;12502;50.678;7.172;2023-07-13T04:08:01;16.00;99.90
24382;DHT22;12502;50.678;7.172;2023-07-13T04:13:03;16.00;99.90
24382;DHT22;12502;50.678;7.172;2023-07-13T04:18:05;16.10;99.90
24382;DHT22;12502;50.678;7.172;2023-07-13T04:23:07;16.10;99.90
24382;DHT22;12502;50.678;7.172;2023-07-13T04:28:09;16.00;99.90
24382;DHT22;12502;50.678;7.172;2023-07-13T04:33:11;15.90;99.90
24382;DHT22;12502;50.678;7.172;2023-07-13T04:38:12;15.90;99.90
24382;DHT22;12502;50.678;7.172;2023-07-13T04:43:16;15.90;99.90
24382;DHT22;12502;50.678;7.172;2023-07-13T04:48:18;15.90;99.90
24382;DHT22;12502;50.678;7.172;2023-07-13T04:53:20;16.00;99.90
24382;DHT22;12502;50.678;7.172;2023-07-13T04:58:22;15.90;99.90
24382;DHT22;12502;50.678;7.172;2023-07-13T05:03:24;16.10;99.90
24382;DHT22;12502;50.678;7.172;2023-07-13T05:08:26;16.10;99.90
24382;DHT22;12502;50.678;7.172;2023-07-13T05:13:28;16.20;99.90
24382;DHT22;12502;50.678;7.172;2023-07-13T05:18:31;16.30;99.90
24382;DHT22;12502;50.678;7.172;2023-07-13T05:23:33;16.40;99.90
24382;DHT22;12502;50.678;7.172;2023-07-13T05:28:35;16.40;99.90
24382;DHT22;12502;50.678;7.172;2023-07-13T05:33:37;16.50;99.90
24382;DHT22;12502;50.678;7.172;2023-07-13T05:38:39;16.60;99.90
24382;DHT22;12502;50.678;7.172;2023-07-13T05:43:41;16.60;99.90
24382;DHT22;12502;50.678;7.172;2023-07-13T05:48:43;16.60;99.90
24382;DHT22;12502;50.678;7.172;2023-07-13T05:53:45;16.60;99.90
24382;DHT22;12502;50.678;7.172;2023-07-13T05:58:47;16.60;99.90
24382;DHT22;12502;50.678;7.172;2023-07-13T06:03:49;16.60;99.90
24382;DHT22;12502;50.678;7.172;2023-07-13T06:08:51;16.80;99.90
24382;DHT22;12502;50.678;7.172;2023-07-13T06:13:53;16.90;99.90
24382;DHT22;12502;50.678;7.172;2023-07-13T06:18:55;17.00;99.90
24382;DHT22;12502;50.678;7.172;2023-07-13T06:23:57;17.00;99.90
24382;DHT22;12502;50.678;7.172;2023-07-13T06:28:59;17.10;99.90
24382;DHT22;12502;50.678;7.172;2023-07-13T06:34:00;17.30;99.90
24382;DHT22;12502;50.678;7.172;2023-07-13T06:39:02;17.40;99.90
24382;DHT22;12502;50.678;7.172;2023-07-13T06:44:04;17.60;99.90
24382;DHT22;12502;50.678;7.172;2023-07-13T06:49:05;17.80;99.90
24382;DHT22;12502;50.678;7.172;2023-07-13T06:54:08;17.90;99.90
24382;DHT22;12502;50.678;7.172;2023-07-13T06:59:10;17.80;99.90
24382;DHT22;12502;50.678;7.172;2023-07-13T07:04:12;18.00;99.90
24382;DHT22;12502;50.678;7.172;2023-07-13T07:09:14;18.20;99.90
24382;DHT22;12502;50.678;7.172;2023-07-13T07:14:17;18.40;99.90
24382;DHT22;12502;50.678;7.172;2023-07-13T07:19:19;18.50;99.90
24382;DHT22;12502;50.678;7.172;2023-07-13T07:24:21;18.80;99.90
24382;DHT22;12502;50.678;7.172;2023-07-13T07:29:23;19.00;99.90
24382;DHT22;12502;50.678;7.172;2023-07-13T07:34:30;19.10;99.90
24382;DHT22;12502;50.678;7.172;2023-07-13T07:39:32;19.30;99.90
24382;DHT22;12502;50.678;7.172;2023-07-13T07:44:34;19.20;99.90
24382;DHT22;12502;50.678;7.172;2023-07-13T07:49:38;19.40;99.90
24382;DHT22;12502;50.678;7.172;2023-07-13T07:54:40;19.30;99.90
24382;DHT22;12502;50.678;7.172;2023-07-13T07:59:45;19.60;99.90
24382;DHT22;12502;50.678;7.172;2023-07-13T08:04:49;19.70;99.90
24382;DHT22;12502;50.678;7.172;2023-07-13T08:09:54;20.00;99.90
24382;DHT22;12502;50.678;7.172;2023-07-13T08:14:56;19.90;99.90
24382;DHT22;12502;50.678;7.172;2023-07-13T08:20:02;20.10;99.90
24382;DHT22;12502;50.678;7.172;2023-07-13T08:25:04;20.20;99.90
24382;DHT22;12502;50.678;7.172;2023-07-13T08:30:06;20.50;99.90
24382;DHT22;12502;50.678;7.172;2023-07-13T08:35:09;20.50;99.90
24382;DHT22;12502;50.678;7.172;2023-07-13T08:40:11;20.70;99.90
24382;DHT22;12502;50.678;7.172;2023-07-13T08:50:15;20.70;99.90
24382;DHT22;12502;50.678;7.172;2023-07-13T08:55:19;20.90;99.90
24382;DHT22;12502;50.678;7.172;2023-07-13T09:00:22;21.20;99.90
24382;DHT22;12502;50.678;7.172;2023-07-13T09:05:31;21.30;99.90
24382;DHT22;12502;50.678;7.172;2023-07-13T09:10:46;21.20;99.90
24382;DHT22;12502;50.678;7.172;2023-07-13T09:15:48;21.20;99.90
24382;DHT22;12502;50.678;7.172;2023-07-13T09:26:28;21.60;99.90
24382;DHT22;12502;50.678;7.172;2023-07-13T09:31:43;21.60;99.90
24382;DHT22;12502;50.678;7.172;2023-07-13T09:36:47;21.90;99.90
24382;DHT22;12502;50.678;7.172;2023-07-13T09:42:12;22.50;99.90
24382;DHT22;12502;50.678;7.172;2023-07-13T09:47:18;22.60;99.40
24382;DHT22;12502;50.678;7.172;2023-07-13T09:52:20;22.50;99.90
24382;DHT22;12502;50.678;7.172;2023-07-13T09:57:22;22.50;99.90
24382;DHT22;12502;50.678;7.172;2023-07-13T10:02:35;22.30;99.90
24382;DHT22;12502;50.678;7.172;2023-07-13T10:07:38;22.20;97.60
24382;DHT22;12502;50.678;7.172;2023-07-13T10:12:40;22.60;98.80
24382;DHT22;12502;50.678;7.172;2023-07-13T10:17:42;22.80;95.00
24382;DHT22;12502;50.678;7.172;2023-07-13T10:22:49;22.50;95.20
24382;DHT22;12502;50.678;7.172;2023-07-13T10:27:54;22.30;95.50
24382;DHT22;12502;50.678;7.172;2023-07-13T10:33:01;22.30;95.70
24382;DHT22;12502;50.678;7.172;2023-07-13T10:38:05;22.50;95.40
24382;DHT22;12502;50.678;7.172;2023-07-13T10:43:12;22.60;95.40
24382;DHT22;12502;50.678;7.172;2023-07-13T10:48:15;23.10;94.90
24382;DHT22;12502;50.678;7.172;2023-07-13T10:53:19;23.10;93.50
24382;DHT22;12502;50.678;7.172;2023-07-13T10:58:28;23.10;93.10
24382;DHT22;12502;50.678;7.172;2023-07-13T11:03:55;22.90;93.00
24382;DHT22;12502;50.678;7.172;2023-07-13T11:08:56;22.90;92.70
24382;DHT22;12502;50.678;7.172;2023-07-13T11:13:59;23.20;93.50
24382;DHT22;12502;50.678;7.172;2023-07-13T11:34:27;22.90;90.90
24382;DHT22;12502;50.678;7.172;2023-07-13T11:39:36;22.80;91.20
24382;DHT22;12502;50.678;7.172;2023-07-13T11:44:47;22.80;91.80
24382;DHT22;12502;50.678;7.172;2023-07-13T11:50:04;22.90;92.40
24382;DHT22;12502;50.678;7.172;2023-07-13T11:55:15;22.80;91.70
24382;DHT22;12502;50.678;7.172;2023-07-13T12:00:18;22.60;92.00
24382;DHT22;12502;50.678;7.172;2023-07-13T12:05:22;22.70;92.20
24382;DHT22;12502;50.678;7.172;2023-07-13T12:10:25;22.50;92.50
24382;DHT22;12502;50.678;7.172;2023-07-13T12:20:40;22.40;93.40
24382;DHT22;12502;50.678;7.172;2023-07-13T12:25:42;22.40;93.70
24382;DHT22;12502;50.678;7.172;2023-07-13T12:30:47;22.40;93.60
24382;DHT22;12502;50.678;7.172;2023-07-13T12:35:49;22.60;93.80
24382;DHT22;12502;50.678;7.172;2023-07-13T12:40:53;22.50;93.50
24382;DHT22;12502;50.678;7.172;2023-07-13T12:51:00;22.50;94.00
24382;DHT22;12502;50.678;7.172;2023-07-13T12:56:02;22.40;94.10
24382;DHT22;12502;50.678;7.172;2023-07-13T13:01:05;22.50;94.90
24382;DHT22;12502;50.678;7.172;2023-07-13T13:06:20;22.60;94.90
24382;DHT22;12502;50.678;7.172;2023-07-13T13:11:24;22.40;95.80
24382;DHT22;12502;50.678;7.172;2023-07-13T13:21:33;22.40;95.00
24382;DHT22;12502;50.678;7.172;2023-07-13T13:26:35;22.20;94.30
24382;DHT22;12502;50.678;7.172;2023-07-13T13:31:37;22.30;94.40
24382;DHT22;12502;50.678;7.172;2023-07-13T13:36:38;22.40;94.90
24382;DHT22;12502;50.678;7.172;2023-07-13T13:41:40;22.30;94.50
24382;DHT22;12502;50.678;7.172;2023-07-13T13:46:43;22.40;94.60
24382;DHT22;12502;50.678;7.172;2023-07-13T13:51:55;22.60;94.40
24382;DHT22;12502;50.678;7.172;2023-07-13T13:56:56;22.60;93.70
24382;DHT22;12502;50.678;7.172;2023-07-13T14:02:01;22.80;94.40
24382;DHT22;12502;50.678;7.172;2023-07-13T14:07:03;22.80;94.00
24382;DHT22;12502;50.678;7.172;2023-07-13T14:12:05;23.00;94.70
24382;DHT22;12502;50.678;7.172;2023-07-13T14:17:21;22.90;93.00
24382;DHT22;12502;50.678;7.172;2023-07-13T14:22:24;22.70;93.10
24382;DHT22;12502;50.678;7.172;2023-07-13T14:27:26;23.00;92.60
24382;DHT22;12502;50.678;7.172;2023-07-13T14:32:28;23.60;92.00
24382;DHT22;12502;50.678;7.172;2023-07-13T14:37:30;23.50;92.30
24382;DHT22;12502;50.678;7.172;2023-07-13T14:42:34;23.80;91.60
24382;DHT22;12502;50.678;7.172;2023-07-13T14:47:36;24.00;91.40
24382;DHT22;12502;50.678;7.172;2023-07-13T14:52:37;24.20;91.10
24382;DHT22;12502;50.678;7.172;2023-07-13T14:57:39;23.70;90.90
24382;DHT22;12502;50.678;7.172;2023-07-13T15:02:42;23.40;91.20
24382;DHT22;12502;50.678;7.172;2023-07-13T15:07:45;23.70;92.50
24382;DHT22;12502;50.678;7.172;2023-07-13T15:12:47;23.90;91.50
24382;DHT22;12502;50.678;7.172;2023-07-13T15:17:48;23.90;91.40
24382;DHT22;12502;50.678;7.172;2023-07-13T15:22:50;23.90;91.70
24382;DHT22;12502;50.678;7.172;2023-07-13T15:27:53;24.00;91.20
24382;DHT22;12502;50.678;7.172;2023-07-13T15:32:55;24.00;90.50
24382;DHT22;12502;50.678;7.172;2023-07-13T15:37:58;24.00;89.70
24382;DHT22;12502;50.678;7.172;2023-07-13T15:43:00;23.90;89.30
24382;DHT22;12502;50.678;7.172;2023-07-13T15:48:01;23.60;90.60
24382;DHT22;12502;50.678;7.172;2023-07-13T15:53:03;23.40;90.70
24382;DHT22;12502;50.678;7.172;2023-07-13T15:58:05;23.40;91.10
24382;DHT22;12502;50.678;7.172;2023-07-13T16:03:07;23.20;90.60
24382;DHT22;12502;50.678;7.172;2023-07-13T16:08:32;23.10;91.00
24382;DHT22;12502;50.678;7.172;2023-07-13T16:13:32;23.10;91.60
24382;DHT22;12502;50.678;7.172;2023-07-13T16:18:34;23.30;92.20
24382;DHT22;12502;50.678;7.172;2023-07-13T16:23:35;23.40;91.40
24382;DHT22;12502;50.678;7.172;2023-07-13T16:28:54;23.40;92.10
24382;DHT22;12502;50.678;7.172;2023-07-13T16:34:02;23.40;92.10
24382;DHT22;12502;50.678;7.172;2023-07-13T16:39:10;23.20;92.10
24382;DHT22;12502;50.678;7.172;2023-07-13T16:44:13;23.10;92.20
24382;DHT22;12502;50.678;7.172;2023-07-13T16:54:24;22.90;92.60
24382;DHT22;12502;50.678;7.172;2023-07-13T16:59:30;22.80;93.10
24382;DHT22;12502;50.678;7.172;2023-07-13T17:04:32;22.50;94.40
24382;DHT22;12502;50.678;7.172;2023-07-13T17:09:34;22.30;95.30
24382;DHT22;12502;50.678;7.172;2023-07-13T17:14:36;22.30;96.30
24382;DHT22;12502;50.678;7.172;2023-07-13T17:19:38;22.20;97.00
24382;DHT22;12502;50.678;7.172;2023-07-13T17:24:40;22.00;97.70
24382;DHT22;12502;50.678;7.172;2023-07-13T17:29:45;21.90;98.50
24382;DHT22;12502;50.678;7.172;2023-07-13T17:34:49;21.90;99.70
24382;DHT22;12502;50.678;7.172;2023-07-13T17:39:51;21.80;99.90
24382;DHT22;12502;50.678;7.172;2023-07-13T17:44:52;21.90;99.90
24382;DHT22;12502;50.678;7.172;2023-07-13T17:49:54;21.80;99.90
24382;DHT22;12502;50.678;7.172;2023-07-13T17:54:58;21.60;99.90
24382;DHT22;12502;50.678;7.172;2023-07-13T18:00:03;21.50;99.90
24382;DHT22;12502;50.678;7.172;2023-07-13T18:05:19;21.50;99.90
24382;DHT22;12502;50.678;7.172;2023-07-13T18:10:21;21.40;99.90
24382;DHT22;12502;50.678;7.172;2023-07-13T18:15:25;21.30;99.90
24382;DHT22;12502;50.678;7.172;2023-07-13T18:20:30;21.40;99.90
24382;DHT22;12502;50.678;7.172;2023-07-13T18:25:32;21.40;99.90
24382;DHT22;12502;50.678;7.172;2023-07-13T18:30:34;21.30;99.90
24382;DHT22;12502;50.678;7.172;2023-07-13T18:35:36;21.30;99.90
24382;DHT22;12502;50.678;7.172;2023-07-13T18:40:39;21.30;99.90
24382;DHT22;12502;50.678;7.172;2023-07-13T18:45:41;21.20;99.90
24382;DHT22;12502;50.678;7.172;2023-07-13T18:50:43;21.20;99.90
24382;DHT22;12502;50.678;7.172;2023-07-13T18:55:45;21.10;99.90
24382;DHT22;12502;50.678;7.172;2023-07-13T19:00:50;21.00;99.90
24382;DHT22;12502;50.678;7.172;2023-07-13T19:05:53;20.90;99.90
24382;DHT22;12502;50.678;7.172;2023-07-13T19:11:02;20.90;99.90
24382;DHT22;12502;50.678;7.172;2023-07-13T19:16:07;20.80;99.90
24382;DHT22;12502;50.678;7.172;2023-07-13T19:21:15;20.80;99.90
24382;DHT22;12502;50.678;7.172;2023-07-13T19:26:29;20.80;99.90
24382;DHT22;12502;50.678;7.172;2023-07-13T19:31:33;20.70;99.90
24382;DHT22;12502;50.678;7.172;2023-07-13T19:36:36;20.70;99.90
24382;DHT22;12502;50.678;7.172;2023-07-13T19:41:39;20.60;99.90
24382;DHT22;12502;50.678;7.172;2023-07-13T19:46:40;20.60;99.90
24382;DHT22;12502;50.678;7.172;2023-07-13T19:51:42;20.60;99.90
24382;DHT22;12502;50.678;7.172;2023-07-13T19:56:45;20.60;99.90
24382;DHT22;12502;50.678;7.172;2023-07-13T20:01:46;20.50;99.90
24382;DHT22;12502;50.678;7.172;2023-07-13T20:06:48;20.30;99.90
24382;DHT22;12502;50.678;7.172;2023-07-13T20:11:50;20.20;99.90
24382;DHT22;12502;50.678;7.172;2023-07-13T20:16:58;20.00;99.90
24382;DHT22;12502;50.678;7.172;2023-07-13T20:22:02;19.90;99.90
24382;DHT22;12502;50.678;7.172;2023-07-13T20:27:04;19.80;99.90
24382;DHT22;12502;50.678;7.172;2023-07-13T20:32:07;19.60;99.90
24382;DHT22;12502;50.678;7.172;2023-07-13T20:42:21;19.20;99.90
24382;DHT22;12502;50.678;7.172;2023-07-13T20:47:23;18.90;99.90
24382;DHT22;12502;50.678;7.172;2023-07-13T20:52:28;19.00;99.90
24382;DHT22;12502;50.678;7.172;2023-07-13T20:57:30;18.90;99.90
24382;DHT22;12502;50.678;7.172;2023-07-13T21:02:34;18.70;99.90
24382;DHT22;12502;50.678;7.172;2023-07-13T21:07:36;18.50;99.90
24382;DHT22;12502;50.678;7.172;2023-07-13T21:12:39;18.40;99.90
24382;DHT22;12502;50.678;7.172;2023-07-13T21:17:41;18.40;99.90
24382;DHT22;12502;50.678;7.172;2023-07-13T21:22:43;18.30;99.90
24382;DHT22;12502;50.678;7.172;2023-07-13T21:27:45;18.30;99.90
24382;DHT22;12502;50.678;7.172;2023-07-13T21:32:48;18.00;99.90
24382;DHT22;12502;50.678;7.172;2023-07-13T21:37:51;17.80;99.90
24382;DHT22;12502;50.678;7.172;2023-07-13T21:42:53;17.70;99.90
24382;DHT22;12502;50.678;7.172;2023-07-13T21:47:55;17.70;99.90
24382;DHT22;12502;50.678;7.172;2023-07-13T21:52:57;17.70;99.90
24382;DHT22;12502;50.678;7.172;2023-07-13T21:57:59;17.70;99.90
24382;DHT22;12502;50.678;7.172;2023-07-13T22:03:00;17.70;99.90
24382;DHT22;12502;50.678;7.172;2023-07-13T22:08:04;17.70;99.90
24382;DHT22;12502;50.678;7.172;2023-07-13T22:13:06;17.60;99.90
24382;DHT22;12502;50.678;7.172;2023-07-13T22:18:15;17.60;99.90
24382;DHT22;12502;50.678;7.172;2023-07-13T22:23:37;17.50;99.90
24382;DHT22;12502;50.678;7.172;2023-07-13T22:28:39;17.50;99.90
24382;DHT22;12502;50.678;7.172;2023-07-13T22:33:41;17.40;99.90
24382;DHT22;12502;50.678;7.172;2023-07-13T22:38:43;17.30;99.90
24382;DHT22;12502;50.678;7.172;2023-07-13T22:43:45;17.20;99.90
24382;DHT22;12502;50.678;7.172;2023-07-13T22:48:53;17.20;99.90
24382;DHT22;12502;50.678;7.172;2023-07-13T22:53:55;17.20;99.90
24382;DHT22;12502;50.678;7.172;2023-07-13T22:58:58;17.10;99.90
24382;DHT22;12502;50.678;7.172;2023-07-13T23:03:59;17.10;99.90
24382;DHT22;12502;50.678;7.172;2023-07-13T23:09:05;17.00;99.90
24382;DHT22;12502;50.678;7.172;2023-07-13T23:14:06;16.80;99.90
24382;DHT22;12502;50.678;7.172;2023-07-13T23:19:18;16.70;99.90
24382;DHT22;12502;50.678;7.172;2023-07-13T23:24:20;16.70;99.90
24382;DHT22;12502;50.678;7.172;2023-07-13T23:29:22;16.70;99.90
24382;DHT22;12502;50.678;7.172;2023-07-13T23:34:24;16.70;99.90
24382;DHT22;12502;50.678;7.172;2023-07-13T23:39:28;16.70;99.90
24382;DHT22;12502;50.678;7.172;2023-07-13T23:44:31;16.50;99.90
24382;DHT22;12502;50.678;7.172;2023-07-13T23:49:33;16.50;99.90
24382;DHT22;12502;50.678;7.172;2023-07-13T23:54:35;16.50;99.90
24382;DHT22;12502;50.678;7.172;2023-07-13T23:59:36;16.50;99.90
